CheckWX is a tool to help pilots better visualize weather data.  It is not intended as a substitute for an official pre-flight weather briefing.

00:41:32 UTC

KDKB METAR
De Kalb Taylor Municipal Airport
De Kalb, Illinois, USA
Current

27 mins ago

KDKB 060015Z AUTO 17007KT 10SM CLR 03/02 A2994 RMK AO2 T00340018
Observed
Dec-6 @ 00:15 UTC
Wind
  • 170° at 7 KTS
Visibility
10 SM
Flight Rules
VFR
Cloud Levels
  • Clear skies
Temperature
C / 37°F
Dewpoint
C / 36°F
Humidity
93%
Altimeter
29.94" Hg
Pressure
1013.92 hPa
Previous

47 mins ago

KDKB 052355Z AUTO 16006KT 10SM CLR 04/02 A2994 RMK AO2 T00360015 10070 20036
Observed
Dec-5 @ 23:55 UTC
Wind
  • 160° at 6 KTS
Visibility
10 SM
Flight Rules
VFR
Cloud Levels
  • Clear skies
Temperature
C / 39°F
Dewpoint
C / 36°F
Humidity
87%
Altimeter
29.94" Hg
Pressure
1013.92 hPa
Previous

1 hour ago

KDKB 052335Z AUTO 16008KT 10SM CLR 05/02 A2994 RMK AO2 T00450017
Observed
Dec-5 @ 23:35 UTC
Wind
  • 160° at 8 KTS
Visibility
10 SM
Flight Rules
VFR
Cloud Levels
  • Clear skies
Temperature
C / 41°F
Dewpoint
C / 36°F
Humidity
81%
Altimeter
29.94" Hg
Pressure
1013.92 hPa